GJS6736 KDEN-KDFW
Flight info
| Callsign | GJS6736 |
|---|---|
| Flight time | 1h 32m |
| Altitude | 39000 |
| Route | SLEEK2 SLEEK EZEEE MDANO JOVEM6 |
| Aircraft | CRJ7/M-SDFGIRWY/S |
Departure
| Time | 2026-05-06 02:26 |
|---|---|
| Airport | Denver International Airport (KDEN) |
Arrival
| Time | 2026-05-06 03:58 |
|---|---|
| Airport | Dallas Fort Worth International Airport (KDFW) |
| Time | Latitude | Longitude | Altitude | Speed | Heading |
|---|---|---|---|---|---|
| 2026-05-06 01:44 | 39.85750 | -104.66723 | 5376 ft | 0 kts | 360° |
| 2026-05-06 02:06 | 39.85745 | -104.66723 | 5362 ft | 4 kts | 360° |
| 2026-05-06 02:06 | 39.85718 | -104.66723 | 5377 ft | 4 kts | 360° |
| 2026-05-06 02:06 | 39.85691 | -104.66723 | 5376 ft | 4 kts | 360° |
| 2026-05-06 02:06 | 39.85666 | -104.66723 | 5378 ft | 0 kts | 0° |
| 2026-05-06 02:07 | 39.85670 | -104.66723 | 5378 ft | 1 kts | 0° |
| 2026-05-06 02:07 | 39.85674 | -104.66723 | 5375 ft | 0 kts | 1° |
| 2026-05-06 02:08 | 39.85684 | -104.66723 | 5379 ft | 2 kts | 2° |
| 2026-05-06 02:08 | 39.85689 | -104.66722 | 5376 ft | 0 kts | 2° |
| 2026-05-06 02:11 | 39.85690 | -104.66723 | 5376 ft | 1 kts | 355° |
| 2026-05-06 02:12 | 39.85696 | -104.66744 | 5374 ft | 7 kts | 264° |
| 2026-05-06 02:12 | 39.85659 | -104.66803 | 5379 ft | 9 kts | 221° |
| 2026-05-06 02:12 | 39.85617 | -104.66858 | 5380 ft | 8 kts | 234° |
| 2026-05-06 02:12 | 39.85592 | -104.66924 | 5380 ft | 9 kts | 257° |
| 2026-05-06 02:13 | 39.85589 | -104.67018 | 5378 ft | 11 kts | 271° |
| 2026-05-06 02:13 | 39.85590 | -104.67085 | 5376 ft | 11 kts | 271° |
| 2026-05-06 02:13 | 39.85590 | -104.67211 | 5380 ft | 10 kts | 269° |
| 2026-05-06 02:13 | 39.85590 | -104.67272 | 5380 ft | 11 kts | 271° |
| 2026-05-06 02:14 | 39.85591 | -104.67427 | 5380 ft | 14 kts | 270° |
| 2026-05-06 02:14 | 39.85592 | -104.67516 | 5380 ft | 15 kts | 270° |
| 2026-05-06 02:14 | 39.85593 | -104.67649 | 5380 ft | 15 kts | 270° |
| 2026-05-06 02:14 | 39.85594 | -104.67785 | 5380 ft | 15 kts | 271° |
| 2026-05-06 02:15 | 39.85595 | -104.67923 | 5380 ft | 15 kts | 270° |
| 2026-05-06 02:15 | 39.85596 | -104.68062 | 5380 ft | 15 kts | 270° |
| 2026-05-06 02:15 | 39.85591 | -104.68165 | 5380 ft | 10 kts | 249° |
| 2026-05-06 02:15 | 39.85549 | -104.68199 | 5379 ft | 6 kts | 184° |
| 2026-05-06 02:16 | 39.85544 | -104.68200 | 5378 ft | 3 kts | 184° |
| 2026-05-06 02:16 | 39.85482 | -104.68201 | 5381 ft | 11 kts | 183° |
| 2026-05-06 02:16 | 39.85399 | -104.68201 | 5381 ft | 13 kts | 181° |
| 2026-05-06 02:16 | 39.85308 | -104.68203 | 5381 ft | 10 kts | 181° |
| 2026-05-06 02:17 | 39.85238 | -104.68230 | 5381 ft | 11 kts | 232° |
| 2026-05-06 02:17 | 39.85207 | -104.68354 | 5378 ft | 16 kts | 265° |
| 2026-05-06 02:17 | 39.85206 | -104.68496 | 5377 ft | 16 kts | 269° |
| 2026-05-06 02:17 | 39.85204 | -104.68648 | 5370 ft | 13 kts | 268° |
| 2026-05-06 02:18 | 39.85196 | -104.68727 | 5366 ft | 9 kts | 245° |
| 2026-05-06 02:18 | 39.85140 | -104.68754 | 5364 ft | 9 kts | 179° |
| 2026-05-06 02:18 | 39.85099 | -104.68753 | 5365 ft | 0 kts | 178° |
| 2026-05-06 02:22 | 39.85093 | -104.68752 | 5365 ft | 3 kts | 179° |
| 2026-05-06 02:22 | 39.85050 | -104.68757 | 5365 ft | 8 kts | 202° |
| 2026-05-06 02:22 | 39.85035 | -104.68829 | 5362 ft | 11 kts | 300° |
| 2026-05-06 02:23 | 39.85101 | -104.68861 | 5360 ft | 11 kts | 359° |
| 2026-05-06 02:23 | 39.85179 | -104.68870 | 5360 ft | 8 kts | 336° |
| 2026-05-06 02:23 | 39.85198 | -104.68950 | 5355 ft | 13 kts | 269° |
| 2026-05-06 02:23 | 39.85196 | -104.69101 | 5349 ft | 20 kts | 270° |
| 2026-05-06 02:24 | 39.85199 | -104.69300 | 5344 ft | 24 kts | 271° |
| 2026-05-06 02:24 | 39.85202 | -104.69513 | 5336 ft | 19 kts | 270° |
| 2026-05-06 02:24 | 39.85204 | -104.69646 | 5335 ft | 10 kts | 283° |
| 2026-05-06 02:24 | 39.85220 | -104.69662 | 5338 ft | 0 kts | 1° |
| 2026-05-06 02:25 | 39.85245 | -104.69661 | 5334 ft | 18 kts | 1° |
| 2026-05-06 02:25 | 39.85609 | -104.69654 | 5335 ft | 86 kts | 0° |
| 2026-05-06 02:25 | 39.86408 | -104.69644 | 5332 ft | 142 kts | 0° |
| 2026-05-06 02:26 | 39.87462 | -104.69598 | 5783 ft | 152 kts | 4° |
| 2026-05-06 02:26 | 39.88449 | -104.69354 | 6709 ft | 144 kts | 30° |
| 2026-05-06 02:26 | 39.89176 | -104.68380 | 7020 ft | 167 kts | 67° |
| 2026-05-06 02:26 | 39.89314 | -104.66760 | 7194 ft | 201 kts | 99° |
| 2026-05-06 02:27 | 39.88821 | -104.64930 | 7523 ft | 226 kts | 111° |
| 2026-05-06 02:27 | 39.88190 | -104.62924 | 8137 ft | 248 kts | 112° |
| 2026-05-06 02:27 | 39.87494 | -104.60796 | 9011 ft | 259 kts | 114° |
| 2026-05-06 02:27 | 39.86779 | -104.58604 | 10026 ft | 265 kts | 114° |
| 2026-05-06 02:28 | 39.86062 | -104.56328 | 10669 ft | 281 kts | 114° |
| 2026-05-06 02:28 | 39.85288 | -104.53868 | 10898 ft | 306 kts | 114° |
| 2026-05-06 02:28 | 39.84459 | -104.51212 | 11224 ft | 326 kts | 114° |
| 2026-05-06 02:28 | 39.83587 | -104.48415 | 11604 ft | 343 kts | 114° |
| 2026-05-06 02:29 | 39.82679 | -104.45484 | 12116 ft | 354 kts | 114° |
| 2026-05-06 02:29 | 39.81759 | -104.42479 | 12718 ft | 362 kts | 114° |
| 2026-05-06 02:29 | 39.80825 | -104.39393 | 13339 ft | 370 kts | 114° |
| 2026-05-06 02:29 | 39.79623 | -104.36421 | 13920 ft | 373 kts | 131° |
| 2026-05-06 02:30 | 39.77932 | -104.33847 | 14531 ft | 377 kts | 134° |
| 2026-05-06 02:30 | 39.76044 | -104.31506 | 15110 ft | 374 kts | 153° |
| 2026-05-06 02:30 | 39.73656 | -104.30353 | 15723 ft | 365 kts | 175° |
| 2026-05-06 02:30 | 39.71137 | -104.30069 | 16342 ft | 362 kts | 186° |
| 2026-05-06 02:31 | 39.68616 | -104.30249 | 16971 ft | 363 kts | 191° |
| 2026-05-06 02:31 | 39.66096 | -104.30604 | 17572 ft | 366 kts | 193° |
| 2026-05-06 02:31 | 39.63567 | -104.31047 | 18185 ft | 369 kts | 194° |
| 2026-05-06 02:31 | 39.61007 | -104.31479 | 18723 ft | 373 kts | 193° |
| 2026-05-06 02:32 | 39.58410 | -104.31801 | 19227 ft | 377 kts | 191° |
| 2026-05-06 02:32 | 39.55784 | -104.32066 | 19763 ft | 380 kts | 190° |
| 2026-05-06 02:32 | 39.53140 | -104.32311 | 20267 ft | 383 kts | 190° |
| 2026-05-06 02:32 | 39.50507 | -104.32561 | 20766 ft | 385 kts | 190° |
| 2026-05-06 02:33 | 39.47882 | -104.32828 | 21229 ft | 388 kts | 190° |
| 2026-05-06 02:33 | 39.46063 | -104.33013 | 21556 ft | 389 kts | 190° |
| 2026-05-06 02:33 | 39.39729 | -104.33672 | 22613 ft | 395 kts | 190° |
| 2026-05-06 02:34 | 39.36981 | -104.33955 | 23054 ft | 398 kts | 190° |
| 2026-05-06 02:34 | 39.34205 | -104.34244 | 23412 ft | 402 kts | 189° |
| 2026-05-06 02:34 | 39.31411 | -104.34531 | 23778 ft | 404 kts | 189° |
| 2026-05-06 02:34 | 39.28637 | -104.34819 | 24138 ft | 406 kts | 189° |
| 2026-05-06 02:35 | 39.25818 | -104.35111 | 24493 ft | 407 kts | 189° |
| 2026-05-06 02:35 | 39.22991 | -104.35402 | 24842 ft | 409 kts | 189° |
| 2026-05-06 02:35 | 39.20151 | -104.35700 | 25191 ft | 410 kts | 189° |
| 2026-05-06 02:35 | 39.17296 | -104.35994 | 25532 ft | 412 kts | 189° |
| 2026-05-06 02:36 | 39.14406 | -104.35896 | 25827 ft | 420 kts | 179° |
| 2026-05-06 02:36 | 39.11503 | -104.35367 | 26211 ft | 422 kts | 176° |
| 2026-05-06 02:36 | 39.08613 | -104.34605 | 26528 ft | 426 kts | 173° |
| 2026-05-06 02:36 | 39.05739 | -104.33653 | 26826 ft | 429 kts | 171° |
| 2026-05-06 02:37 | 39.02854 | -104.32659 | 27111 ft | 430 kts | 172° |
| 2026-05-06 02:37 | 38.99951 | -104.31681 | 27359 ft | 433 kts | 172° |
| 2026-05-06 02:37 | 38.97006 | -104.30720 | 27448 ft | 438 kts | 172° |
| 2026-05-06 02:37 | 38.94047 | -104.29783 | 27787 ft | 437 kts | 173° |
| 2026-05-06 02:38 | 38.91120 | -104.28859 | 28137 ft | 436 kts | 173° |
| 2026-05-06 02:38 | 38.88205 | -104.27923 | 28519 ft | 434 kts | 173° |
| 2026-05-06 02:38 | 38.85300 | -104.26996 | 28867 ft | 433 kts | 174° |
| 2026-05-06 02:38 | 38.82384 | -104.26071 | 29197 ft | 432 kts | 174° |
| 2026-05-06 02:39 | 38.79468 | -104.25147 | 29519 ft | 431 kts | 174° |
| 2026-05-06 02:39 | 38.76563 | -104.24228 | 29844 ft | 430 kts | 174° |
| 2026-05-06 02:39 | 38.73659 | -104.23305 | 30143 ft | 429 kts | 174° |
| 2026-05-06 02:39 | 38.70762 | -104.22385 | 30380 ft | 429 kts | 174° |
| 2026-05-06 02:40 | 38.67875 | -104.21460 | 30669 ft | 427 kts | 175° |
| 2026-05-06 02:40 | 38.64991 | -104.20542 | 30896 ft | 426 kts | 175° |
| 2026-05-06 02:40 | 38.62122 | -104.19632 | 31185 ft | 425 kts | 176° |
| 2026-05-06 02:40 | 38.59258 | -104.18728 | 31477 ft | 423 kts | 176° |
| 2026-05-06 02:41 | 38.56405 | -104.17829 | 31747 ft | 421 kts | 176° |
| 2026-05-06 02:41 | 38.53587 | -104.16696 | 31995 ft | 434 kts | 166° |
| 2026-05-06 02:41 | 38.50887 | -104.14861 | 32250 ft | 442 kts | 160° |
| 2026-05-06 02:41 | 38.48236 | -104.12871 | 32481 ft | 442 kts | 161° |
| 2026-05-06 02:42 | 38.45633 | -104.10783 | 32776 ft | 445 kts | 158° |
| 2026-05-06 02:42 | 38.43130 | -104.08397 | 33011 ft | 454 kts | 153° |
| 2026-05-06 02:42 | 38.40728 | -104.05756 | 33228 ft | 457 kts | 151° |
| 2026-05-06 02:42 | 38.38350 | -104.03053 | 33450 ft | 457 kts | 151° |
| 2026-05-06 02:43 | 38.35991 | -104.00392 | 33660 ft | 456 kts | 152° |
| 2026-05-06 02:43 | 38.33584 | -103.97785 | 33871 ft | 454 kts | 153° |
| 2026-05-06 02:43 | 38.31165 | -103.95207 | 34057 ft | 454 kts | 153° |
| 2026-05-06 02:43 | 38.28748 | -103.92619 | 34194 ft | 454 kts | 153° |
| 2026-05-06 02:44 | 38.26455 | -103.90150 | 34308 ft | 455 kts | 155° |
| 2026-05-06 02:44 | 38.24030 | -103.87579 | 34470 ft | 455 kts | 154° |
| 2026-05-06 02:44 | 38.21604 | -103.84989 | 34627 ft | 455 kts | 155° |
| 2026-05-06 02:45 | 38.16824 | -103.79884 | 34888 ft | 456 kts | 154° |
| 2026-05-06 02:45 | 38.14392 | -103.77290 | 35065 ft | 456 kts | 154° |
| 2026-05-06 02:45 | 38.11969 | -103.74705 | 35245 ft | 455 kts | 154° |
| 2026-05-06 02:45 | 38.09540 | -103.72123 | 35432 ft | 455 kts | 154° |
| 2026-05-06 02:46 | 38.07118 | -103.69546 | 35495 ft | 456 kts | 155° |
| 2026-05-06 02:46 | 38.04672 | -103.66971 | 35605 ft | 457 kts | 155° |
| 2026-05-06 02:46 | 38.02229 | -103.64405 | 35775 ft | 456 kts | 155° |
| 2026-05-06 02:46 | 37.99787 | -103.61837 | 35944 ft | 456 kts | 155° |
| 2026-05-06 02:47 | 37.97349 | -103.59258 | 36111 ft | 456 kts | 154° |
| 2026-05-06 02:47 | 37.92520 | -103.54130 | 36346 ft | 455 kts | 154° |
| 2026-05-06 02:47 | 37.90148 | -103.51617 | 36474 ft | 455 kts | 154° |
| 2026-05-06 02:48 | 37.87722 | -103.49053 | 36625 ft | 454 kts | 155° |
| 2026-05-06 02:48 | 37.85320 | -103.46505 | 36806 ft | 452 kts | 155° |
| 2026-05-06 02:48 | 37.82908 | -103.43954 | 36961 ft | 452 kts | 155° |
| 2026-05-06 02:48 | 37.80506 | -103.41406 | 37111 ft | 451 kts | 155° |
| 2026-05-06 02:49 | 37.78100 | -103.38867 | 37244 ft | 450 kts | 155° |
| 2026-05-06 02:49 | 37.75691 | -103.36339 | 37374 ft | 450 kts | 155° |
| 2026-05-06 02:49 | 37.73286 | -103.33818 | 37513 ft | 450 kts | 155° |
| 2026-05-06 02:49 | 37.70898 | -103.31310 | 37641 ft | 449 kts | 155° |
| 2026-05-06 02:50 | 37.68504 | -103.28758 | 37712 ft | 449 kts | 155° |
| 2026-05-06 02:50 | 37.66109 | -103.26234 | 37841 ft | 449 kts | 155° |
| 2026-05-06 02:50 | 37.63697 | -103.23740 | 37973 ft | 447 kts | 155° |
| 2026-05-06 02:51 | 37.58883 | -103.18770 | 38191 ft | 448 kts | 154° |
| 2026-05-06 02:51 | 37.56489 | -103.16264 | 38294 ft | 447 kts | 155° |
| 2026-05-06 02:51 | 37.54087 | -103.13779 | 38365 ft | 448 kts | 154° |
| 2026-05-06 02:51 | 37.51707 | -103.11232 | 38515 ft | 448 kts | 154° |
| 2026-05-06 02:52 | 37.49334 | -103.08705 | 38602 ft | 446 kts | 155° |
| 2026-05-06 02:52 | 37.44554 | -103.03735 | 38743 ft | 445 kts | 156° |
| 2026-05-06 02:53 | 37.39779 | -102.98783 | 38864 ft | 445 kts | 156° |
| 2026-05-06 02:53 | 37.34985 | -102.93810 | 38899 ft | 449 kts | 155° |
| 2026-05-06 02:54 | 37.30149 | -102.88804 | 38898 ft | 452 kts | 155° |
| 2026-05-06 02:54 | 37.25275 | -102.83764 | 38854 ft | 454 kts | 155° |
| 2026-05-06 02:55 | 37.20416 | -102.78750 | 38885 ft | 451 kts | 156° |
| 2026-05-06 02:55 | 37.15595 | -102.73794 | 38898 ft | 450 kts | 157° |
| 2026-05-06 02:56 | 37.10777 | -102.68841 | 38894 ft | 450 kts | 157° |
| 2026-05-06 02:56 | 37.05941 | -102.63879 | 38896 ft | 449 kts | 157° |
| 2026-05-06 02:57 | 37.01112 | -102.58939 | 38885 ft | 447 kts | 158° |
| 2026-05-06 02:57 | 36.96324 | -102.54041 | 38903 ft | 447 kts | 158° |
| 2026-05-06 02:58 | 36.91512 | -102.49129 | 38908 ft | 446 kts | 158° |
| 2026-05-06 02:58 | 36.86703 | -102.44225 | 38909 ft | 446 kts | 158° |
| 2026-05-06 02:59 | 36.81895 | -102.39331 | 38877 ft | 446 kts | 159° |
| 2026-05-06 02:59 | 36.77870 | -102.35250 | 38907 ft | 445 kts | 159° |
| 2026-05-06 03:00 | 36.73124 | -102.30434 | 38913 ft | 444 kts | 159° |
| 2026-05-06 03:00 | 36.68333 | -102.25583 | 38922 ft | 444 kts | 159° |
| 2026-05-06 03:01 | 36.63537 | -102.20734 | 38921 ft | 444 kts | 159° |
| 2026-05-06 03:01 | 36.58749 | -102.15898 | 38909 ft | 443 kts | 159° |
| 2026-05-06 03:02 | 36.53962 | -102.11073 | 38923 ft | 442 kts | 159° |
| 2026-05-06 03:02 | 36.49222 | -102.06303 | 38925 ft | 442 kts | 159° |
| 2026-05-06 03:03 | 36.44437 | -102.01502 | 38923 ft | 442 kts | 159° |
| 2026-05-06 03:03 | 36.40001 | -101.97055 | 38930 ft | 442 kts | 159° |
| 2026-05-06 03:04 | 36.35252 | -101.92295 | 38917 ft | 441 kts | 159° |
| 2026-05-06 03:04 | 36.30462 | -101.87505 | 38922 ft | 440 kts | 160° |
| 2026-05-06 03:05 | 36.26273 | -101.83326 | 38926 ft | 440 kts | 160° |
| 2026-05-06 03:05 | 36.21511 | -101.78578 | 38924 ft | 440 kts | 160° |
| 2026-05-06 03:06 | 36.17316 | -101.74405 | 38926 ft | 439 kts | 160° |
| 2026-05-06 03:06 | 36.12567 | -101.69678 | 38911 ft | 438 kts | 160° |
| 2026-05-06 03:07 | 36.08011 | -101.65157 | 38922 ft | 437 kts | 160° |
| 2026-05-06 03:07 | 36.03261 | -101.60452 | 38926 ft | 437 kts | 160° |
| 2026-05-06 03:08 | 35.98515 | -101.55758 | 38918 ft | 437 kts | 160° |
| 2026-05-06 03:08 | 35.93765 | -101.51067 | 38870 ft | 437 kts | 160° |
| 2026-05-06 03:09 | 35.89020 | -101.46388 | 38908 ft | 436 kts | 160° |
| 2026-05-06 03:09 | 35.84316 | -101.41758 | 38957 ft | 435 kts | 160° |
| 2026-05-06 03:10 | 35.79573 | -101.36989 | 38972 ft | 444 kts | 156° |
| 2026-05-06 03:10 | 35.77327 | -101.34307 | 38973 ft | 455 kts | 152° |
| 2026-05-06 03:10 | 35.75183 | -101.31488 | 38974 ft | 458 kts | 150° |
| 2026-05-06 03:11 | 35.70810 | -101.25841 | 38931 ft | 452 kts | 152° |
| 2026-05-06 03:11 | 35.66359 | -101.20394 | 38953 ft | 451 kts | 152° |
| 2026-05-06 03:12 | 35.61936 | -101.14891 | 38969 ft | 452 kts | 152° |
| 2026-05-06 03:12 | 35.57515 | -101.09392 | 38981 ft | 453 kts | 152° |
| 2026-05-06 03:13 | 35.53087 | -101.03893 | 38986 ft | 453 kts | 152° |
| 2026-05-06 03:13 | 35.48654 | -100.98393 | 38976 ft | 453 kts | 152° |
| 2026-05-06 03:14 | 35.44242 | -100.92929 | 38963 ft | 453 kts | 152° |
| 2026-05-06 03:14 | 35.39802 | -100.87444 | 38949 ft | 453 kts | 152° |
| 2026-05-06 03:15 | 35.35360 | -100.81962 | 38937 ft | 453 kts | 152° |
| 2026-05-06 03:15 | 35.30950 | -100.76532 | 38917 ft | 453 kts | 152° |
| 2026-05-06 03:16 | 35.26504 | -100.71066 | 38868 ft | 452 kts | 152° |
| 2026-05-06 03:16 | 35.22062 | -100.65616 | 38907 ft | 452 kts | 152° |
| 2026-05-06 03:17 | 35.17611 | -100.60159 | 38917 ft | 453 kts | 152° |
| 2026-05-06 03:17 | 35.13145 | -100.54698 | 38930 ft | 455 kts | 152° |
| 2026-05-06 03:18 | 35.08667 | -100.49224 | 38910 ft | 457 kts | 152° |
| 2026-05-06 03:18 | 35.04186 | -100.43711 | 38864 ft | 457 kts | 151° |
| 2026-05-06 03:19 | 34.99689 | -100.38236 | 38909 ft | 457 kts | 151° |
| 2026-05-06 03:19 | 34.95207 | -100.32791 | 38919 ft | 459 kts | 151° |
| 2026-05-06 03:20 | 34.88390 | -100.24513 | 38915 ft | 460 kts | 151° |
| 2026-05-06 03:20 | 34.83842 | -100.19009 | 38922 ft | 462 kts | 151° |
| 2026-05-06 03:21 | 34.79360 | -100.13591 | 38888 ft | 462 kts | 151° |
| 2026-05-06 03:21 | 34.74792 | -100.08075 | 38904 ft | 463 kts | 151° |
| 2026-05-06 03:22 | 34.70215 | -100.02562 | 38903 ft | 464 kts | 151° |
| 2026-05-06 03:22 | 34.65621 | -99.97037 | 38900 ft | 465 kts | 151° |
| 2026-05-06 03:23 | 34.61014 | -99.91502 | 38900 ft | 467 kts | 151° |
| 2026-05-06 03:23 | 34.56393 | -99.85970 | 38874 ft | 467 kts | 151° |
| 2026-05-06 03:24 | 34.51780 | -99.80436 | 38890 ft | 468 kts | 151° |
| 2026-05-06 03:24 | 34.47132 | -99.74890 | 38889 ft | 469 kts | 151° |
| 2026-05-06 03:25 | 34.42475 | -99.69334 | 38888 ft | 471 kts | 151° |
| 2026-05-06 03:25 | 34.37807 | -99.63769 | 38887 ft | 471 kts | 151° |
| 2026-05-06 03:26 | 34.33208 | -99.58177 | 38866 ft | 482 kts | 144° |
| 2026-05-06 03:26 | 34.31144 | -99.54907 | 38867 ft | 496 kts | 136° |
| 2026-05-06 03:26 | 34.29395 | -99.51241 | 38876 ft | 509 kts | 129° |
| 2026-05-06 03:27 | 34.26116 | -99.43657 | 38880 ft | 506 kts | 133° |
| 2026-05-06 03:27 | 34.22516 | -99.36392 | 38881 ft | 505 kts | 133° |
| 2026-05-06 03:28 | 34.18983 | -99.29036 | 38889 ft | 507 kts | 133° |
| 2026-05-06 03:28 | 34.15451 | -99.21652 | 38890 ft | 508 kts | 133° |
| 2026-05-06 03:29 | 34.11927 | -99.14294 | 38849 ft | 508 kts | 132° |
| 2026-05-06 03:29 | 34.08384 | -99.06907 | 38885 ft | 508 kts | 133° |
| 2026-05-06 03:30 | 34.04828 | -98.99530 | 38881 ft | 510 kts | 133° |
| 2026-05-06 03:30 | 34.01257 | -98.92127 | 38843 ft | 511 kts | 133° |
| 2026-05-06 03:31 | 33.97685 | -98.84729 | 38473 ft | 509 kts | 133° |
| 2026-05-06 03:31 | 33.95917 | -98.81079 | 37668 ft | 512 kts | 133° |
| 2026-05-06 03:31 | 33.94095 | -98.77330 | 37049 ft | 513 kts | 133° |
| 2026-05-06 03:32 | 33.92319 | -98.73670 | 36541 ft | 510 kts | 133° |
| 2026-05-06 03:32 | 33.90533 | -98.69996 | 35922 ft | 507 kts | 133° |
| 2026-05-06 03:32 | 33.88746 | -98.66362 | 35350 ft | 504 kts | 133° |
| 2026-05-06 03:32 | 33.86963 | -98.62741 | 34788 ft | 501 kts | 133° |
| 2026-05-06 03:33 | 33.85202 | -98.59137 | 34242 ft | 500 kts | 133° |
| 2026-05-06 03:33 | 33.83443 | -98.55536 | 33662 ft | 497 kts | 133° |
| 2026-05-06 03:33 | 33.81693 | -98.51958 | 33046 ft | 498 kts | 132° |
| 2026-05-06 03:33 | 33.79938 | -98.48361 | 32443 ft | 499 kts | 132° |
| 2026-05-06 03:34 | 33.78178 | -98.44759 | 31860 ft | 501 kts | 131° |
| 2026-05-06 03:34 | 33.76426 | -98.41177 | 31195 ft | 506 kts | 131° |
| 2026-05-06 03:34 | 33.74640 | -98.37528 | 30625 ft | 508 kts | 131° |
| 2026-05-06 03:34 | 33.72847 | -98.33868 | 30058 ft | 508 kts | 131° |
| 2026-05-06 03:35 | 33.71047 | -98.30212 | 29409 ft | 508 kts | 130° |
| 2026-05-06 03:35 | 33.69256 | -98.26566 | 28754 ft | 507 kts | 130° |
| 2026-05-06 03:35 | 33.67475 | -98.22939 | 28078 ft | 507 kts | 130° |
| 2026-05-06 03:35 | 33.65684 | -98.19311 | 27467 ft | 505 kts | 130° |
| 2026-05-06 03:36 | 33.63885 | -98.15710 | 27023 ft | 498 kts | 130° |
| 2026-05-06 03:36 | 33.62142 | -98.12156 | 26413 ft | 489 kts | 129° |
| 2026-05-06 03:36 | 33.60435 | -98.08671 | 25853 ft | 482 kts | 129° |
| 2026-05-06 03:36 | 33.58720 | -98.05228 | 25292 ft | 479 kts | 129° |
| 2026-05-06 03:37 | 33.57012 | -98.01800 | 24751 ft | 477 kts | 129° |
| 2026-05-06 03:37 | 33.55330 | -97.98411 | 24226 ft | 477 kts | 129° |
| 2026-05-06 03:37 | 33.53632 | -97.95006 | 23692 ft | 475 kts | 129° |
| 2026-05-06 03:37 | 33.51934 | -97.91625 | 23134 ft | 473 kts | 128° |
| 2026-05-06 03:38 | 33.50253 | -97.88236 | 22528 ft | 472 kts | 127° |
| 2026-05-06 03:38 | 33.48702 | -97.85028 | 21973 ft | 469 kts | 127° |
| 2026-05-06 03:38 | 33.47072 | -97.81656 | 21399 ft | 466 kts | 127° |
| 2026-05-06 03:38 | 33.45444 | -97.78323 | 20843 ft | 461 kts | 128° |
| 2026-05-06 03:39 | 33.43808 | -97.75043 | 20265 ft | 456 kts | 128° |
| 2026-05-06 03:39 | 33.42193 | -97.71807 | 19748 ft | 450 kts | 128° |
| 2026-05-06 03:39 | 33.40594 | -97.68614 | 19223 ft | 445 kts | 128° |
| 2026-05-06 03:39 | 33.39014 | -97.65454 | 18732 ft | 440 kts | 128° |
| 2026-05-06 03:40 | 33.37243 | -97.62558 | 18236 ft | 424 kts | 141° |
| 2026-05-06 03:40 | 33.35169 | -97.60134 | 17705 ft | 414 kts | 146° |
| 2026-05-06 03:40 | 33.33041 | -97.57846 | 17170 ft | 409 kts | 146° |
| 2026-05-06 03:40 | 33.30959 | -97.55568 | 16689 ft | 406 kts | 144° |
| 2026-05-06 03:41 | 33.28930 | -97.53232 | 16205 ft | 403 kts | 143° |
| 2026-05-06 03:41 | 33.26936 | -97.50899 | 15730 ft | 400 kts | 143° |
| 2026-05-06 03:41 | 33.24979 | -97.48556 | 15195 ft | 396 kts | 142° |
| 2026-05-06 03:41 | 33.23027 | -97.46249 | 14737 ft | 393 kts | 142° |
| 2026-05-06 03:42 | 33.21108 | -97.44007 | 14291 ft | 389 kts | 142° |
| 2026-05-06 03:42 | 33.19184 | -97.41753 | 13843 ft | 386 kts | 142° |
| 2026-05-06 03:42 | 33.17270 | -97.39514 | 13358 ft | 383 kts | 142° |
| 2026-05-06 03:42 | 33.15371 | -97.37305 | 12853 ft | 380 kts | 142° |
| 2026-05-06 03:43 | 33.13495 | -97.35123 | 12373 ft | 373 kts | 142° |
| 2026-05-06 03:43 | 33.11676 | -97.32999 | 12094 ft | 356 kts | 142° |
| 2026-05-06 03:43 | 33.09971 | -97.30983 | 12072 ft | 334 kts | 142° |
| 2026-05-06 03:43 | 33.08364 | -97.29069 | 12050 ft | 319 kts | 142° |
| 2026-05-06 03:44 | 33.06824 | -97.27237 | 12030 ft | 307 kts | 142° |
| 2026-05-06 03:44 | 33.05347 | -97.25481 | 12014 ft | 297 kts | 143° |
| 2026-05-06 03:44 | 33.03900 | -97.23786 | 12002 ft | 287 kts | 143° |
| 2026-05-06 03:44 | 33.02493 | -97.22147 | 12009 ft | 279 kts | 144° |
| 2026-05-06 03:45 | 33.01565 | -97.21073 | 12022 ft | 282 kts | 144° |
| 2026-05-06 03:45 | 32.99672 | -97.18892 | 12034 ft | 283 kts | 144° |
| 2026-05-06 03:45 | 32.98725 | -97.17824 | 12032 ft | 282 kts | 148° |
| 2026-05-06 03:45 | 32.97071 | -97.16832 | 12003 ft | 255 kts | 180° |
| 2026-05-06 03:46 | 32.95354 | -97.16691 | 11728 ft | 245 kts | 189° |
| 2026-05-06 03:46 | 32.93662 | -97.16708 | 11449 ft | 242 kts | 190° |
| 2026-05-06 03:46 | 32.91986 | -97.16732 | 11137 ft | 241 kts | 190° |
| 2026-05-06 03:46 | 32.90300 | -97.16707 | 10797 ft | 243 kts | 187° |
| 2026-05-06 03:47 | 32.88607 | -97.16604 | 10476 ft | 244 kts | 186° |
| 2026-05-06 03:47 | 32.86915 | -97.16508 | 10140 ft | 244 kts | 186° |
| 2026-05-06 03:47 | 32.85215 | -97.16410 | 9817 ft | 245 kts | 186° |
| 2026-05-06 03:47 | 32.83515 | -97.16316 | 9498 ft | 244 kts | 185° |
| 2026-05-06 03:48 | 32.81820 | -97.16229 | 9194 ft | 243 kts | 185° |
| 2026-05-06 03:48 | 32.80140 | -97.16142 | 8924 ft | 240 kts | 185° |
| 2026-05-06 03:48 | 32.78479 | -97.16082 | 8627 ft | 238 kts | 186° |
| 2026-05-06 03:48 | 32.76829 | -97.16061 | 8267 ft | 237 kts | 186° |
| 2026-05-06 03:49 | 32.75214 | -97.16052 | 8174 ft | 224 kts | 186° |
| 2026-05-06 03:49 | 32.73737 | -97.16049 | 8126 ft | 203 kts | 187° |
| 2026-05-06 03:49 | 32.72345 | -97.16058 | 7799 ft | 198 kts | 188° |
| 2026-05-06 03:49 | 32.70977 | -97.16082 | 7464 ft | 195 kts | 187° |
| 2026-05-06 03:50 | 32.69620 | -97.16116 | 7104 ft | 193 kts | 186° |
| 2026-05-06 03:50 | 32.68290 | -97.16121 | 6721 ft | 192 kts | 185° |
| 2026-05-06 03:50 | 32.66976 | -97.16122 | 6485 ft | 183 kts | 185° |
| 2026-05-06 03:50 | 32.65775 | -97.16103 | 6195 ft | 168 kts | 183° |
| 2026-05-06 03:51 | 32.64580 | -97.16033 | 5485 ft | 177 kts | 173° |
| 2026-05-06 03:51 | 32.63604 | -97.15216 | 4855 ft | 186 kts | 126° |
| 2026-05-06 03:51 | 32.63444 | -97.13712 | 4266 ft | 194 kts | 79° |
| 2026-05-06 03:51 | 32.64225 | -97.12408 | 3675 ft | 196 kts | 45° |
| 2026-05-06 03:52 | 32.65166 | -97.11280 | 3326 ft | 188 kts | 46° |
| 2026-05-06 03:52 | 32.66124 | -97.10257 | 3160 ft | 188 kts | 43° |
| 2026-05-06 03:52 | 32.67143 | -97.09225 | 3098 ft | 196 kts | 41° |
| 2026-05-06 03:52 | 32.68195 | -97.08177 | 3065 ft | 198 kts | 42° |
| 2026-05-06 03:53 | 32.69251 | -97.07145 | 3064 ft | 193 kts | 41° |
| 2026-05-06 03:53 | 32.70262 | -97.06167 | 3052 ft | 184 kts | 36° |
| 2026-05-06 03:53 | 32.71483 | -97.05875 | 2998 ft | 182 kts | 356° |
| 2026-05-06 03:53 | 32.72697 | -97.05827 | 3030 ft | 172 kts | 9° |
| 2026-05-06 03:54 | 32.73894 | -97.05662 | 3012 ft | 174 kts | 8° |
| 2026-05-06 03:54 | 32.75102 | -97.05522 | 3038 ft | 176 kts | 6° |
| 2026-05-06 03:54 | 32.76295 | -97.05527 | 3015 ft | 156 kts | 1° |
| 2026-05-06 03:54 | 32.77291 | -97.05547 | 2786 ft | 134 kts | 4° |
| 2026-05-06 03:55 | 32.78215 | -97.05532 | 2531 ft | 135 kts | 3° |
| 2026-05-06 03:55 | 32.79126 | -97.05505 | 2324 ft | 132 kts | 3° |
| 2026-05-06 03:55 | 32.80006 | -97.05497 | 2084 ft | 124 kts | 1° |
| 2026-05-06 03:55 | 32.80862 | -97.05479 | 1869 ft | 124 kts | 2° |
| 2026-05-06 03:56 | 32.81756 | -97.05493 | 1735 ft | 131 kts | 1° |
| 2026-05-06 03:56 | 32.82654 | -97.05487 | 1640 ft | 124 kts | 1° |
| 2026-05-06 03:56 | 32.83502 | -97.05483 | 1425 ft | 123 kts | 0° |
| 2026-05-06 03:56 | 32.84401 | -97.05479 | 1315 ft | 133 kts | 0° |
| 2026-05-06 03:57 | 32.85313 | -97.05487 | 1197 ft | 129 kts | 0° |
| 2026-05-06 03:57 | 32.86194 | -97.05489 | 1045 ft | 122 kts | 0° |
| 2026-05-06 03:57 | 32.87021 | -97.05479 | 848 ft | 121 kts | 359° |
| 2026-05-06 03:57 | 32.87839 | -97.05482 | 693 ft | 113 kts | 1° |
| 2026-05-06 03:58 | 32.88585 | -97.05478 | 618 ft | 92 kts | 0° |
| 2026-05-06 03:58 | 32.89039 | -97.05474 | 619 ft | 42 kts | 1° |
| 2026-05-06 03:58 | 32.89192 | -97.05424 | 624 ft | 18 kts | 26° |
| 2026-05-06 03:58 | 32.89302 | -97.05348 | 614 ft | 18 kts | 30° |
| 2026-05-06 03:59 | 32.89393 | -97.05260 | 617 ft | 16 kts | 69° |
| 2026-05-06 03:59 | 32.89401 | -97.05120 | 620 ft | 18 kts | 90° |
| 2026-05-06 03:59 | 32.89400 | -97.04974 | 621 ft | 15 kts | 90° |
| 2026-05-06 03:59 | 32.89377 | -97.04895 | 626 ft | 9 kts | 163° |
| 2026-05-06 04:00 | 32.89297 | -97.04891 | 628 ft | 14 kts | 179° |
| 2026-05-06 04:00 | 32.89192 | -97.04891 | 614 ft | 16 kts | 180° |
| 2026-05-06 04:00 | 32.89068 | -97.04892 | 624 ft | 20 kts | 180° |
| 2026-05-06 04:00 | 32.88919 | -97.04892 | 618 ft | 22 kts | 180° |
| 2026-05-06 04:01 | 32.88757 | -97.04893 | 621 ft | 24 kts | 180° |
| 2026-05-06 04:01 | 32.88608 | -97.04894 | 621 ft | 15 kts | 180° |
| 2026-05-06 04:01 | 32.88518 | -97.04888 | 623 ft | 9 kts | 147° |
| 2026-05-06 04:01 | 32.88502 | -97.04803 | 617 ft | 14 kts | 91° |
| 2026-05-06 04:02 | 32.88501 | -97.04668 | 614 ft | 18 kts | 90° |
| 2026-05-06 04:02 | 32.88500 | -97.04513 | 621 ft | 20 kts | 90° |
| 2026-05-06 04:02 | 32.88500 | -97.04344 | 621 ft | 21 kts | 90° |
| 2026-05-06 04:02 | 32.88500 | -97.04161 | 621 ft | 23 kts | 90° |
| 2026-05-06 04:03 | 32.88499 | -97.03968 | 619 ft | 23 kts | 90° |
| 2026-05-06 04:03 | 32.88498 | -97.03804 | 614 ft | 18 kts | 90° |
| 2026-05-06 04:03 | 32.88498 | -97.03649 | 614 ft | 20 kts | 90° |
| 2026-05-06 04:03 | 32.88497 | -97.03487 | 614 ft | 18 kts | 90° |
| 2026-05-06 04:04 | 32.88497 | -97.03349 | 614 ft | 9 kts | 83° |
| 2026-05-06 04:04 | 32.88546 | -97.03321 | 614 ft | 13 kts | 359° |
| 2026-05-06 04:04 | 32.88669 | -97.03321 | 619 ft | 19 kts | 1° |
| 2026-05-06 04:04 | 32.88805 | -97.03321 | 619 ft | 20 kts | 0° |
| 2026-05-06 04:05 | 32.88950 | -97.03320 | 618 ft | 20 kts | 0° |
| 2026-05-06 04:05 | 32.89091 | -97.03319 | 621 ft | 21 kts | 0° |
| 2026-05-06 04:05 | 32.89238 | -97.03318 | 620 ft | 19 kts | 360° |
| 2026-05-06 04:05 | 32.89350 | -97.03319 | 618 ft | 8 kts | 359° |
| 2026-05-06 04:06 | 32.89381 | -97.03368 | 618 ft | 12 kts | 266° |
| 2026-05-06 04:06 | 32.89380 | -97.03478 | 614 ft | 14 kts | 270° |
| 2026-05-06 04:06 | 32.89379 | -97.03603 | 622 ft | 16 kts | 270° |
| 2026-05-06 04:06 | 32.89379 | -97.03724 | 614 ft | 11 kts | 270° |
| 2026-05-06 04:07 | 32.89379 | -97.03779 | 614 ft | 4 kts | 262° |
| 2026-05-06 04:07 | 32.89356 | -97.03796 | 617 ft | 5 kts | 189° |
| 2026-05-06 04:07 | 32.89332 | -97.03801 | 626 ft | 2 kts | 190° |
| 2026-05-06 04:07 | 32.89331 | -97.03801 | 625 ft | 0 kts | 190° |